Time;durP1;ratioP1;P1;durP2;ratioP2;P2;SDS_P1;SDS_P2;PMS_P1;PMS_P2;Temp;Humidity;BMP_temperature;BMP_pressure;BME280_temperature;BME280_humidity;BME280_pressure;Samples;Min_cycle;Max_cycle;Signal;HPM_P1;HPM_P2
2024/04/12 00:02:11;;;;;;;14.27;12.43;;;15.40;99.90;;;15.75;100.00;102999.06;5525429;26;20017;-70
2024/04/12 00:04:41;;;;;;;15.35;13.15;;;15.40;99.90;;;15.68;100.00;102983.00;5527474;26;19994;-70
2024/04/12 00:07:16;;;;;;;19.98;13.73;;;15.30;99.90;;;15.65;100.00;102961.59;5527448;25;20001;-70
2024/04/12 00:09:52;;;;;;;14.95;13.35;;;15.30;99.90;;;15.69;100.00;102976.75;5527188;25;19998;-70
2024/04/12 00:12:26;;;;;;;16.50;14.07;;;15.30;99.90;;;15.75;100.00;102983.06;5527134;25;19997;-70
2024/04/12 00:15:05;;;;;;;18.00;14.25;;;15.30;99.90;;;15.75;100.00;102975.06;5527655;26;20001;-67
2024/04/12 00:17:36;;;;;;;17.45;15.38;;;15.40;99.90;;;15.74;100.00;102970.59;5528169;26;19997;-67
2024/04/12 00:20:10;;;;;;;17.90;15.90;;;15.40;99.90;;;15.73;100.00;102971.47;5528688;26;20029;-67
2024/04/12 00:22:43;;;;;;;17.77;15.27;;;15.40;99.90;;;15.68;100.00;102961.66;5528410;26;20004;-67
2024/04/12 00:25:12;;;;;;;17.30;15.00;;;15.30;99.90;;;15.27;100.00;102873.25;5528587;26;19997;-67
2024/04/12 00:27:43;;;;;;;18.40;16.17;;;15.40;99.90;;;15.68;100.00;102967.00;5528202;26;20001;-67
2024/04/12 00:30:37;;;;;;;18.80;16.80;;;15.30;99.90;;;15.67;100.00;102958.06;5527822;26;19994;-67
2024/04/12 00:33:09;;;;;;;19.55;17.35;;;15.30;99.90;;;15.65;100.00;102957.16;5527531;26;20029;-67
2024/04/12 00:35:37;;;;;;;20.30;17.15;;;15.30;99.90;;;15.57;100.00;102931.28;5527798;26;20009;-66
2024/04/12 00:38:09;;;;;;;20.90;17.60;;;15.40;99.90;;;15.74;100.00;102951.00;5527480;26;20005;-67
2024/04/12 00:40:45;;;;;;;19.48;16.88;;;15.40;99.90;;;15.73;100.00;102947.47;5528276;25;19993;-67
2024/04/12 00:43:18;;;;;;;19.15;16.80;;;15.30;99.90;;;15.62;100.00;102934.91;5527419;26;20017;-66
2024/04/12 00:45:49;;;;;;;18.58;16.58;;;15.40;99.90;;;15.77;100.00;102949.28;5527551;26;20007;-67
2024/04/12 00:48:21;;;;;;;;;;;15.40;99.90;;;15.72;100.00;102950.09;5528880;25;19997;-67
2024/04/12 00:50:50;;;;;;;19.73;15.95;;;15.40;99.90;;;15.64;100.00;102935.81;5527576;25;19932;-67
2024/04/12 00:53:28;;;;;;;19.73;16.58;;;15.30;99.90;;;15.51;100.00;102910.81;5528150;25;20065;-68
2024/04/12 00:56:00;;;;;;;20.88;15.60;;;15.30;99.90;;;15.70;100.00;102917.19;5527748;26;20311;-67
2024/04/12 00:58:32;;;;;;;18.45;16.13;;;15.30;99.90;;;15.65;100.00;102922.50;5527461;26;19993;-66
2024/04/12 01:01:11;;;;;;;19.00;16.02;;;15.30;99.90;;;15.64;100.00;102923.34;5525872;26;20000;-67
2024/04/12 01:03:45;;;;;;;17.05;15.05;;;15.30;99.90;;;15.64;100.00;102919.81;5525133;26;20351;-66
2024/04/12 01:06:16;;;;;;;16.02;14.25;;;15.30;99.90;;;15.57;100.00;102923.28;5527397;25;20004;-68
2024/04/12 01:08:51;;;;;;;19.33;14.82;;;15.20;99.90;;;15.59;100.00;102925.09;5525180;26;19993;-67
2024/04/12 01:11:20;;;;;;;17.67;15.00;;;15.20;99.90;;;15.64;100.00;102914.47;5526901;26;20454;-67
2024/04/12 01:13:51;;;;;;;17.15;15.35;;;15.20;99.90;;;15.64;100.00;102927.81;5527131;26;20038;-67
2024/04/12 01:16:22;;;;;;;16.67;14.85;;;15.30;99.90;;;15.67;100.00;102931.41;5525054;26;20038;-66
2024/04/12 01:18:55;;;;;;;18.75;16.02;;;15.30;99.90;;;15.79;100.00;102933.25;5525622;26;20061;-66
2024/04/12 01:21:24;;;;;;;19.05;15.20;;;15.40;99.90;;;15.74;100.00;102929.66;5527036;26;19997;-67
2024/04/12 01:23:55;;;;;;;16.27;14.48;;;15.40;99.90;;;15.73;100.00;102923.44;5525027;26;20001;-67
2024/04/12 01:26:27;;;;;;;18.35;14.98;;;15.40;99.90;;;15.71;100.00;102916.31;5527263;26;20025;-67
2024/04/12 01:29:02;;;;;;;19.48;15.80;;;15.40;99.90;;;15.62;100.00;102894.91;5527168;25;20314;-67
2024/04/12 01:31:34;;;;;;;18.15;15.20;;;15.40;99.90;;;15.69;100.00;102910.97;5527355;26;20062;-67
2024/04/12 01:34:12;;;;;;;16.48;14.52;;;15.40;99.90;;;15.78;100.00;102913.69;5526869;25;20043;-67
2024/04/12 01:36:42;;;;;;;20.30;15.32;;;15.40;99.90;;;15.79;100.00;102906.56;5526627;26;20319;-67
2024/04/12 01:39:12;;;;;;;18.20;14.95;;;15.40;99.90;;;15.71;100.00;102914.53;5526630;26;20038;-67
2024/04/12 01:41:44;;;;;;;17.95;14.90;;;15.40;99.90;;;15.73;100.00;102915.44;5526653;26;20002;-67
2024/04/12 01:44:23;;;;;;;19.38;15.32;;;15.30;99.90;;;15.71;100.00;102926.97;5526570;26;20005;-66
2024/04/12 01:46:52;;;;;;;21.80;15.38;;;15.40;99.90;;;15.79;100.00;102917.25;5526892;26;20065;-67
2024/04/12 01:49:22;;;;;;;19.30;15.73;;;15.40;99.90;;;15.66;100.00;102899.38;5526474;26;20449;-67
2024/04/12 01:51:53;;;;;;;22.67;17.77;;;15.40;99.90;;;15.72;100.00;102920.75;5526480;26;20005;-67
2024/04/12 01:54:23;;;;;;;24.67;17.83;;;15.40;99.90;;;15.73;100.00;102927.88;5529871;25;20316;-67
2024/04/12 01:56:53;;;;;;;22.90;18.42;;;15.40;99.90;;;15.76;100.00;102930.56;5530227;26;20113;-67
2024/04/12 01:59:23;;;;;;;24.23;19.10;;;15.40;99.90;;;15.60;100.00;102888.66;5530725;26;19993;-67
2024/04/12 02:01:52;;;;;;;23.80;18.38;;;15.40;99.90;;;15.68;100.00;102918.97;5530106;26;20460;-67
2024/04/12 02:04:22;;;;;;;26.30;20.27;;;15.30;99.90;;;15.59;100.00;102922.44;5530046;26;20004;-67
2024/04/12 02:06:51;;;;;;;;;;;15.30;99.90;;;15.42;100.00;102891.16;5531298;26;19993;-67
2024/04/12 02:09:21;;;;;;;26.83;19.95;;;15.20;99.90;;;15.59;100.00;102913.53;5528182;26;19931;-67
2024/04/12 02:11:52;;;;;;;25.40;20.38;;;15.20;99.90;;;15.61;100.00;102920.66;5529960;26;19994;-67
2024/04/12 02:14:25;;;;;;;27.00;19.75;;;15.20;99.90;;;15.49;100.00;102907.22;5530020;25;20012;-67
2024/04/12 02:16:55;;;;;;;28.65;20.05;;;15.20;99.90;;;15.60;100.00;102915.34;5529963;25;20034;-67
2024/04/12 02:19:27;;;;;;;26.20;19.92;;;15.20;99.90;;;15.59;100.00;102925.09;5529871;25;20450;-67
2024/04/12 02:21:54;;;;;;;26.38;19.27;;;15.20;99.90;;;15.46;100.00;102912.56;5528541;26;20005;-67
2024/04/12 02:24:24;;;;;;;25.40;19.05;;;15.20;99.90;;;15.54;100.00;102917.94;5528289;26;19994;-67
2024/04/12 02:26:53;;;;;;;27.85;19.40;;;15.20;99.90;;;15.51;100.00;102915.25;5530128;25;20005;-67
2024/04/12 02:29:26;;;;;;;29.63;19.10;;;15.20;99.90;;;15.59;100.00;102913.53;5529972;25;20330;-67
2024/04/12 02:31:55;;;;;;;26.40;17.88;;;15.20;99.90;;;15.48;100.00;102888.56;5530259;25;19998;-67
2024/04/12 02:34:26;;;;;;;24.90;17.92;;;15.20;99.90;;;15.54;100.00;102891.28;5527470;26;20026;-67
2024/04/12 02:36:53;;;;;;;23.25;17.73;;;15.20;99.90;;;15.51;100.00;102897.47;5529600;25;19997;-67
2024/04/12 02:39:24;;;;;;;24.30;17.80;;;15.20;99.90;;;15.58;100.00;102899.28;5529129;26;20025;-66
2024/04/12 02:41:54;;;;;;;21.13;16.02;;;15.20;99.90;;;15.49;100.00;102885.88;5529430;26;19997;-66
2024/04/12 02:44:27;;;;;;;21.15;16.27;;;15.20;99.90;;;15.59;100.00;102908.19;5529740;26;19993;-66
2024/04/12 02:46:55;;;;;;;19.90;15.35;;;15.20;99.90;;;15.67;100.00;102907.38;5529787;25;19993;-67
2024/04/12 02:49:25;;;;;;;20.13;15.45;;;15.30;99.90;;;15.61;100.00;102906.44;5529292;26;20061;-67
2024/04/12 02:51:53;;;;;;;20.17;15.20;;;15.20;99.90;;;15.62;100.00;102892.22;5527341;26;20006;-67
2024/04/12 02:54:27;;;;;;;21.02;14.65;;;15.30;99.90;;;15.68;100.00;102895.81;5527493;26;20119;-67
2024/04/12 02:56:56;;;;;;;17.38;14.13;;;15.30;99.90;;;15.69;100.00;102904.72;5529434;25;19993;-67
2024/04/12 02:59:29;;;;;;;18.02;13.57;;;15.30;99.90;;;15.71;100.00;102898.53;5529505;26;20311;-67
2024/04/12 03:01:57;;;;;;;15.93;12.60;;;15.30;99.90;;;15.72;100.00;102894.06;5529452;26;20451;-67
2024/04/12 03:04:30;;;;;;;15.35;12.70;;;15.40;99.90;;;15.66;100.00;102891.38;5526081;26;20001;-67
2024/04/12 03:07:09;;;;;;;19.33;13.02;;;15.30;99.90;;;15.67;100.00;102891.38;5529126;26;20505;-67
2024/04/12 03:09:40;;;;;;;15.05;12.48;;;15.30;99.90;;;15.55;100.00;102893.03;5527303;26;20317;-66
2024/04/12 03:12:12;;;;;;;15.52;12.20;;;15.20;99.90;;;15.60;100.00;102899.31;5527806;26;20395;-66
2024/04/12 03:14:47;;;;;;;16.98;12.65;;;15.20;99.90;;;15.59;100.00;102886.84;5529564;26;20001;-66
2024/04/12 03:17:17;;;;;;;15.63;11.93;;;15.20;99.90;;;15.53;100.00;102893.03;5529337;26;19993;-66
2024/04/12 03:19:48;;;;;;;16.17;12.05;;;15.20;99.90;;;15.39;100.00;102857.31;5529584;26;20375;-66
2024/04/12 03:22:15;;;;;;;13.05;11.63;;;15.20;99.90;;;15.47;100.00;102898.31;5528850;26;19998;-66
2024/04/12 03:24:45;;;;;;;13.32;11.15;;;15.10;99.90;;;14.98;100.00;102785.00;5528532;26;20005;-66
2024/04/12 03:27:13;;;;;;;13.32;11.48;;;15.10;99.90;;;15.52;100.00;102882.38;5528826;25;19993;-66
2024/04/12 03:29:49;;;;;;;14.00;11.30;;;15.10;99.90;;;15.50;100.00;102884.13;5528489;26;20059;-67
2024/04/12 03:32:19;;;;;;;14.57;12.18;;;15.10;99.90;;;15.45;100.00;102881.41;5528855;26;20008;-66
2024/04/12 03:34:49;;;;;;;14.30;12.48;;;15.10;99.90;;;15.47;100.00;102884.97;5526625;26;20004;-66
2024/04/12 03:37:23;;;;;;;13.75;12.10;;;15.10;99.90;;;15.54;100.00;102885.94;5528725;26;20005;-66
2024/04/12 03:40:00;;;;;;;14.23;11.82;;;15.10;99.90;;;15.49;100.00;102875.22;5528579;26;19993;-66
2024/04/12 03:42:28;;;;;;;14.18;12.63;;;15.10;99.90;;;15.42;100.00;102867.16;5529310;26;20026;-66
2024/04/12 03:45:12;;;;;;;13.95;11.85;;;15.10;99.90;;;15.20;100.00;102834.06;5528235;26;20069;-66
2024/04/12 03:47:40;;;;;;;16.00;12.20;;;15.10;99.90;;;14.73;100.00;102756.38;5528596;25;20004;-67
2024/04/12 03:50:13;;;;;;;15.80;11.30;;;15.10;99.90;;;15.37;100.00;102870.66;5528097;25;19994;-67
2024/04/12 03:52:41;;;;;;;12.05;10.63;;;15.00;99.90;;;15.36;100.00;102879.56;5528597;26;19993;-66
2024/04/12 03:55:16;;;;;;;14.07;11.02;;;15.00;99.90;;;15.41;100.00;102879.56;5528521;25;19997;-66
2024/04/12 03:57:44;;;;;;;12.07;10.40;;;15.00;99.90;;;15.48;100.00;102876.13;5528604;25;19994;-67
2024/04/12 04:00:17;;;;;;;13.98;10.70;;;15.10;99.90;;;15.51;100.00;102872.56;5528557;26;19993;-67
2024/04/12 04:02:48;;;;;;;15.52;10.75;;;15.10;99.90;;;15.34;100.00;102873.31;5528973;26;20005;-66
2024/04/12 04:05:25;;;;;;;14.68;10.65;;;15.00;99.90;;;15.50;100.00;102873.44;5526560;26;19993;-66
2024/04/12 04:07:54;;;;;;;14.57;10.52;;;15.10;99.90;;;15.26;100.00;102815.44;5528186;26;20001;-66
2024/04/12 04:10:25;;;;;;;13.35;10.50;;;15.10;99.90;;;15.28;100.00;102837.69;5527853;26;20004;-67
2024/04/12 04:12:55;;;;;;;11.80;9.85;;;15.10;99.90;;;15.45;100.00;102867.22;5528685;26;20037;-66
2024/04/12 04:15:26;;;;;;;14.13;10.02;;;15.10;99.90;;;15.37;100.00;102854.66;5528190;25;19994;-66
2024/04/12 04:17:56;;;;;;;13.07;10.48;;;15.10;99.90;;;15.48;100.00;102862.78;5528077;26;20322;-66
2024/04/12 04:20:27;;;;;;;11.88;10.40;;;15.10;99.90;;;15.54;100.00;102856.59;5528684;26;20008;-66
2024/04/12 04:23:05;;;;;;;15.60;12.02;;;15.10;99.90;;;15.43;100.00;102858.28;5528144;25;19997;-66
2024/04/12 04:25:33;;;;;;;17.45;10.82;;;15.10;99.90;;;15.44;100.00;102847.63;5528009;26;19994;-67
2024/04/12 04:28:09;;;;;;;18.08;11.57;;;15.10;99.90;;;15.34;100.00;102830.63;5525736;26;20008;-67
2024/04/12 04:30:40;;;;;;;13.10;10.77;;;15.10;99.90;;;15.49;100.00;102851.22;5527970;26;19997;-67
2024/04/12 04:33:12;;;;;;;15.80;11.73;;;15.10;99.90;;;15.49;100.00;102847.63;5528436;26;20310;-66
2024/04/12 04:35:44;;;;;;;15.88;11.00;;;15.10;99.90;;;15.43;100.00;102831.63;5527903;25;20074;-66
2024/04/12 04:38:16;;;;;;;13.45;11.93;;;15.20;99.90;;;15.47;100.00;102847.63;5527883;25;20034;-67
2024/04/12 04:40:44;;;;;;;17.15;11.85;;;15.20;99.90;;;15.51;100.00;102853.88;5528327;26;20050;-66
2024/04/12 04:43:17;;;;;;;14.05;11.05;;;15.20;99.90;;;14.84;100.00;102724.50;5527350;26;20038;-67
2024/04/12 04:45:48;;;;;;;16.15;10.63;;;15.10;99.90;;;15.58;100.00;102848.59;5527757;26;20422;-66
2024/04/12 04:48:18;;;;;;;15.18;11.80;;;15.20;99.90;;;15.60;100.00;102851.31;5528287;26;20034;-67
2024/04/12 04:50:46;;;;;;;14.35;11.75;;;15.20;99.90;;;15.56;100.00;102838.81;5527573;26;19994;-67
2024/04/12 04:53:16;;;;;;;13.35;11.10;;;15.20;99.90;;;15.58;100.00;102843.25;5527381;26;20152;-67
2024/04/12 04:55:44;;;;;;;16.42;11.57;;;15.20;99.90;;;15.57;100.00;102845.94;5526097;26;20426;-67
2024/04/12 04:58:17;;;;;;;16.80;11.80;;;15.20;99.90;;;15.50;100.00;102829.00;5527232;26;20057;-67
2024/04/12 05:00:49;;;;;;;18.35;11.63;;;15.20;99.90;;;14.96;100.00;102738.78;5527439;26;20362;-67
2024/04/12 05:03:19;;;;;;;16.48;11.45;;;15.20;99.90;;;15.51;100.00;102829.88;5527474;26;20066;-67
2024/04/12 05:05:49;;;;;;;17.92;11.38;;;15.10;99.90;;;15.49;100.00;102828.97;5527469;25;20383;-67
2024/04/12 05:08:20;;;;;;;14.68;11.15;;;15.10;99.90;;;15.28;100.00;102803.91;5527315;26;19997;-67
2024/04/12 05:10:48;;;;;;;14.63;11.57;;;15.10;99.90;;;15.49;100.00;102826.31;5527235;26;20012;-67
2024/04/12 05:13:18;;;;;;;17.48;12.15;;;15.10;99.90;;;15.48;100.00;102821.88;5526607;25;20000;-67
2024/04/12 05:15:51;;;;;;;21.80;11.38;;;15.10;99.90;;;15.47;100.00;102822.72;5527606;26;20001;-66
2024/04/12 05:18:22;;;;;;;17.38;12.50;;;15.10;99.90;;;15.40;100.00;102813.78;5527636;25;20005;-67
2024/04/12 05:20:50;;;;;;;18.90;12.45;;;15.00;99.90;;;15.42;100.00;102827.16;5527296;25;20004;-67
2024/04/12 05:23:20;;;;;;;17.83;12.23;;;15.00;99.90;;;15.37;100.00;102824.41;5527054;25;20008;-67
2024/04/12 05:25:50;;;;;;;16.13;12.68;;;15.00;99.90;;;15.28;100.00;102819.91;5526990;26;20411;-66
2024/04/12 05:28:21;;;;;;;17.80;12.82;;;15.00;99.90;;;15.41;100.00;102828.03;5528481;26;19997;-66
2024/04/12 05:30:54;;;;;;;19.58;13.20;;;15.00;99.90;;;15.40;100.00;102827.13;5530407;26;20046;-66
2024/04/12 05:33:25;;;;;;;20.98;12.32;;;15.00;99.90;;;15.47;100.00;102833.41;5530996;25;20004;-66
2024/04/12 05:35:55;;;;;;;18.17;13.02;;;15.10;99.90;;;15.49;100.00;102826.31;5531154;25;20012;-66
2024/04/12 05:38:26;;;;;;;17.42;13.00;;;15.10;99.90;;;15.47;100.00;102830.72;5528418;26;20009;-66
2024/04/12 05:40:54;;;;;;;18.45;12.52;;;15.10;99.90;;;15.49;100.00;102826.31;5530935;26;20374;-67
2024/04/12 05:43:25;;;;;;;21.52;12.60;;;15.10;99.90;;;15.54;100.00;102835.25;5530061;26;20057;-66
2024/04/12 05:45:57;;;;;;;20.45;12.93;;;15.10;99.90;;;15.51;100.00;102833.44;5530331;25;20330;-66
2024/04/12 05:48:30;;;;;;;16.88;12.45;;;15.10;99.90;;;15.49;100.00;102835.22;5528549;26;19997;-67
2024/04/12 05:50:58;;;;;;;18.15;12.18;;;15.10;99.90;;;15.54;100.00;102853.91;5530449;26;20042;-68
2024/04/12 05:53:31;;;;;;;20.10;13.00;;;15.20;99.90;;;15.44;100.00;102833.41;5529940;26;19997;-67
2024/04/12 05:58:51;;;;;;;21.67;12.73;;;15.20;99.90;;;15.45;100.00;102840.53;5529936;25;19997;-68
2024/04/12 06:01:24;;;;;;;15.85;12.48;;;15.20;99.90;;;15.57;100.00;102856.59;5530081;25;20318;-68
2024/04/12 06:03:56;;;;;;;15.32;12.13;;;15.20;99.90;;;15.56;100.00;102869.06;5529744;26;20387;-68
2024/04/12 06:06:24;;;;;;;19.23;12.73;;;15.20;99.90;;;15.63;100.00;102875.31;5529802;26;20065;-68
2024/04/12 06:08:58;;;;;;;18.55;12.85;;;15.20;99.90;;;15.43;100.00;102834.28;5529954;26;20005;-68
2024/04/12 06:11:26;;;;;;;28.23;13.38;;;15.30;99.90;;;15.62;100.00;102861.06;5530296;25;20022;-68
2024/04/12 06:14:01;;;;;;;18.45;13.40;;;15.30;99.90;;;15.64;100.00;102863.78;5529295;26;19993;-68
2024/04/12 06:16:31;;;;;;;20.50;12.40;;;15.30;99.90;;;15.65;100.00;102861.13;5529745;26;19993;-67
2024/04/12 06:19:02;;;;;;;16.38;12.52;;;15.30;99.90;;;15.73;100.00;102871.84;5529723;26;20017;-67
2024/04/12 06:21:30;;;;;;;20.92;12.13;;;15.30;99.90;;;15.72;100.00;102867.38;5529506;26;19993;-68
2024/04/12 06:24:08;;;;;;;18.88;12.45;;;15.30;99.90;;;15.70;100.00;102853.16;5529467;26;20009;-67
2024/04/12 06:26:39;;;;;;;19.15;12.60;;;15.40;99.90;;;15.72;100.00;102856.69;5529716;26;20005;-67
2024/04/12 06:29:16;;;;;;;17.48;12.25;;;15.30;99.90;;;15.69;100.00;102854.03;5529644;25;20008;-67
2024/04/12 06:32:00;;;;;;;20.05;12.38;;;15.30;99.90;;;15.09;100.00;102740.69;5530050;26;19994;-67
2024/04/12 06:34:28;;;;;;;18.60;11.70;;;15.40;99.90;;;15.71;100.00;102863.84;5529298;26;19993;-65
2024/04/12 06:37:05;;;;;;;20.23;12.23;;;15.40;99.90;;;15.77;100.00;102861.19;5529012;26;19994;-67
2024/04/12 06:39:34;;;;;;;21.50;12.30;;;15.40;99.90;;;15.58;100.00;102826.38;5528702;25;20029;-67
2024/04/12 06:42:08;;;;;;;17.40;11.20;;;15.40;99.90;;;15.76;100.00;102863.84;5527458;26;19994;-66
2024/04/12 06:44:37;;;;;;;21.42;11.32;;;15.40;99.90;;;15.93;100.00;102867.53;5529257;26;20076;-67
2024/04/12 06:47:10;;;;;;;16.73;10.80;;;15.50;99.90;;;15.99;100.00;102867.53;5527495;26;19993;-65
2024/04/12 06:49:44;;;;;;;19.33;10.52;;;15.60;99.90;;;16.08;100.00;102865.84;5529274;26;19993;-65
2024/04/12 06:52:20;;;;;;;16.45;10.00;;;15.70;99.90;;;16.23;100.00;102875.69;5529247;26;20010;-65
2024/04/12 06:54:50;;;;;;;19.27;10.05;;;15.80;99.90;;;16.11;100.00;102862.25;5529764;26;20005;-66
2024/04/12 06:57:22;;;;;;;17.98;10.23;;;15.90;99.90;;;16.34;99.87;102886.41;5528707;25;20394;-66
2024/04/12 06:59:54;;;;;;;14.23;9.43;;;16.00;99.90;;;16.48;99.24;102879.34;5529252;25;20004;-66
2024/04/12 07:02:29;;;;;;;17.45;10.02;;;16.10;99.90;;;16.32;98.43;102840.97;5527209;26;20004;-66
2024/04/12 07:05:00;;;;;;;13.57;10.15;;;16.20;99.90;;;16.70;97.88;102884.81;5527539;26;20021;-65
2024/04/12 07:07:32;;;;;;;15.75;9.48;;;16.30;99.90;;;16.73;97.39;102884.78;5529013;26;19993;-65
2024/04/12 07:10:09;;;;;;;17.50;10.02;;;16.40;99.90;;;16.75;96.15;102890.13;5527489;26;20411;-67
2024/04/12 07:12:43;;;;;;;15.25;9.98;;;16.40;99.90;;;16.87;95.84;102876.81;5528782;25;20001;-64
2024/04/12 07:15:10;;;;;;;14.45;9.20;;;16.50;99.90;;;16.94;94.74;102855.44;5529335;26;20070;-66
2024/04/12 07:17:47;;;;;;;14.15;9.43;;;16.70;99.90;;;17.13;93.50;102875.94;5528359;26;20008;-66
2024/04/12 07:20:27;;;;;;;14.52;9.27;;;16.80;99.90;;;17.28;93.22;102884.88;5529366;25;20008;-64
2024/04/12 07:22:58;;;;;;;12.23;9.15;;;16.90;99.90;;;17.47;92.09;102884.88;5529427;26;20440;-62
2024/04/12 07:25:26;;;;;;;13.13;8.60;;;17.10;99.90;;;17.43;91.44;102866.13;5529345;26;20004;-64
2024/04/12 07:27:56;;;;;;;15.45;9.50;;;17.20;99.90;;;17.53;90.24;102894.72;5528537;26;20434;-65
2024/04/12 07:30:27;;;;;;;13.25;9.02;;;17.20;99.90;;;17.65;90.00;102892.03;5528343;26;20387;-66
2024/04/12 07:32:59;;;;;;;;;;;17.30;99.90;;;17.74;89.79;102908.09;5529492;26;19997;-66
2024/04/12 07:35:29;;;;;;;14.88;8.57;;;17.40;99.90;;;17.70;88.68;102899.16;5528695;25;19929;-64
2024/04/12 07:38:01;;;;;;;14.55;9.05;;;17.40;99.90;;;17.79;88.53;102912.53;5528604;25;19997;-67
2024/04/12 07:40:34;;;;;;;15.50;8.80;;;17.40;99.90;;;17.94;88.03;102908.94;5528582;26;19993;-64
2024/04/12 07:43:11;;;;;;;15.25;8.90;;;17.50;99.90;;;17.92;87.69;102886.63;5528490;26;20027;-64
2024/04/12 07:45:44;;;;;;;14.05;8.88;;;17.70;99.90;;;18.01;86.47;102895.53;5528539;26;20012;-64
2024/04/12 07:51:04;;;;;;;12.95;7.85;;;17.70;99.90;;;18.28;85.52;102902.59;5515192;26;20352;-63
2024/04/12 07:53:34;;;;;;;12.35;8.18;;;17.90;99.90;;;18.30;84.45;102898.13;5528737;25;19994;-63
2024/04/12 07:56:14;;;;;;;13.48;7.38;;;18.00;99.90;;;18.28;83.29;102894.56;5528084;26;20008;-77
2024/04/12 07:58:50;;;;;;;16.15;7.70;;;18.00;99.90;;;18.19;82.42;102888.34;5528347;25;19997;-77
2024/04/12 08:01:25;;;;;;;14.25;7.22;;;18.00;99.90;;;18.37;81.95;102912.41;5528289;26;19993;-76
2024/04/12 08:03:56;;;;;;;14.32;7.50;;;18.00;99.90;;;18.43;81.92;102913.28;5528702;26;20565;-77
2024/04/12 08:06:55;;;;;;;11.30;6.80;;;18.10;99.90;;;18.45;80.83;102906.13;5526305;26;20332;-77
2024/04/12 08:09:34;;;;;;;15.02;6.68;;;18.10;99.90;;;18.58;80.83;102904.31;5528421;26;19994;-75
2024/04/12 08:12:14;;;;;;;12.02;7.10;;;18.30;99.90;;;18.62;80.63;102904.25;5528139;26;19994;-76
2024/04/12 08:14:51;;;;;;;11.50;7.03;;;18.20;99.90;;;18.72;80.97;102902.41;5527811;25;20021;-74
2024/04/12 08:17:27;;;;;;;9.95;7.00;;;18.30;99.90;;;18.91;80.89;102888.03;5527984;26;19997;-67
2024/04/12 08:20:12;;;;;;;12.50;6.13;;;18.50;99.90;;;18.97;79.42;102912.09;5528168;26;19997;-69
2024/04/12 08:22:43;;;;;;;13.98;6.80;;;18.60;99.90;;;18.91;78.79;102906.81;5527794;26;20005;-69
2024/04/12 08:25:17;;;;;;;11.60;6.55;;;18.60;99.90;;;19.01;78.84;102910.31;5527897;26;20007;-70
2024/04/12 08:27:54;;;;;;;12.07;6.00;;;18.70;99.90;;;19.05;78.04;102922.81;5528356;26;20021;-69
2024/04/12 08:30:22;;;;;;;10.82;6.65;;;18.70;99.90;;;19.04;78.25;102911.19;5527989;25;20008;-70
2024/04/12 08:32:55;;;;;;;8.40;6.03;;;18.70;99.90;;;19.09;78.59;102903.06;5527371;26;19994;-70
2024/04/12 08:35:25;;;;;;;13.20;6.30;;;18.80;99.90;;;18.66;78.14;102814.00;5527544;26;20005;-71
2024/04/12 08:37:57;;;;;;;7.88;5.90;;;18.80;99.90;;;19.25;78.04;102905.66;5527682;26;20004;-71
2024/04/12 08:40:25;;;;;;;9.23;5.55;;;18.90;99.90;;;19.28;78.37;102910.97;5527546;26;20002;-71
2024/04/12 08:43:09;;;;;;;11.88;6.57;;;19.00;99.90;;;19.22;77.90;102883.31;5527087;26;20006;-72
2024/04/12 08:45:43;;;;;;;7.10;5.10;;;19.00;99.90;;;19.40;77.60;102915.41;5527872;26;20066;-74
2024/04/12 08:48:15;;;;;;;11.00;5.85;;;19.00;99.90;;;19.41;77.22;102887.66;5527572;25;20001;-73
2024/04/12 08:50:48;;;;;;;10.52;5.25;;;19.20;99.90;;;19.61;76.71;102917.91;5527374;26;20025;-71
2024/04/12 08:53:21;;;;;;;14.15;5.75;;;19.30;99.90;;;19.76;76.64;102905.22;5527571;26;20375;-71
2024/04/12 08:55:49;;;;;;;11.73;5.85;;;19.40;99.90;;;19.87;75.75;102905.13;5527811;25;19993;-70
2024/04/12 08:58:23;;;;;;;9.43;5.25;;;19.60;99.90;;;19.95;75.56;102905.03;5527550;25;19993;-75
2024/04/12 09:00:55;;;;;;;7.50;4.63;;;19.60;99.90;;;19.97;74.73;102908.59;5527254;26;20064;-66
2024/04/12 09:03:35;;;;;;;8.15;4.70;;;19.60;99.90;;;19.99;74.35;102923.81;5526171;26;19993;-67
2024/04/12 09:06:12;;;;;;;7.72;4.85;;;19.80;99.90;;;20.08;73.92;102914.75;5527122;26;19997;-67
2024/04/12 09:08:44;;;;;;;9.20;4.93;;;19.80;99.90;;;20.22;74.08;102913.75;5527626;26;20461;-67
2024/04/12 09:11:13;;;;;;;8.57;4.40;;;19.90;99.90;;;20.20;73.79;102914.66;5527061;26;19993;-67
2024/04/12 09:13:46;;;;;;;7.47;4.72;;;19.90;99.90;;;20.21;72.84;102898.50;5526885;26;19993;-67
2024/04/12 09:16:19;;;;;;;8.50;4.75;;;19.90;99.90;;;20.28;73.07;102910.97;5525167;26;20008;-66
2024/04/12 09:18:51;;;;;;;9.48;4.70;;;19.90;99.90;;;20.30;73.14;102922.63;5526969;26;20004;-66
2024/04/12 09:21:29;;;;;;;8.73;4.97;;;20.00;99.90;;;20.40;73.45;102915.31;5525233;26;20321;-66
2024/04/12 09:24:09;;;;;;;6.47;4.43;;;20.00;99.90;;;20.38;73.62;102923.38;5527204;25;20005;-67
2024/04/12 09:26:55;;;;;;;;;;;20.00;99.90;;;20.59;73.66;102925.84;5525618;26;20009;-67
2024/04/12 09:29:29;;;;;;;11.55;4.53;;;20.30;99.90;;;20.59;72.66;102919.56;5526783;26;20344;-66
2024/04/12 09:34:55;;;;;;;6.05;4.25;;;20.40;99.90;;;20.77;71.86;102923.81;5527097;26;20001;-66
2024/04/12 09:37:38;;;;;;;8.55;4.13;;;20.50;99.90;;;20.14;71.56;102809.88;5527018;26;20012;-66
2024/04/12 09:40:28;;;;;;;8.07;4.40;;;20.50;99.90;;;20.91;71.88;102927.16;5527166;26;19993;-67
2024/04/12 09:45:57;;;;;;;4.10;3.40;;;20.70;99.90;;;21.18;73.08;102932.19;5524897;26;19994;-66
2024/04/12 10:39:11;;;;;;;5.43;3.42;;;22.10;99.90;;;22.50;64.78;102930.69;5529202;26;20029;-66
2024/04/12 10:41:45;;;;;;;7.45;4.10;;;22.20;99.90;;;22.45;65.17;102926.28;5529260;26;19994;-66
2024/04/12 10:44:19;;;;;;;12.00;4.13;;;22.10;99.90;;;22.51;64.23;102929.81;5527898;26;20005;-65
2024/04/12 10:46:50;;;;;;;7.03;3.50;;;22.30;99.90;;;22.54;63.55;102925.22;5529540;26;20461;-66
2024/04/12 10:49:21;;;;;;;9.05;4.05;;;22.30;99.90;;;22.19;63.23;102943.91;5527939;26;19994;-66
2024/04/12 10:51:52;;;;;;;8.23;3.88;;;22.00;99.90;;;22.20;63.85;102934.94;5529202;25;20007;-65
2024/04/12 10:54:23;;;;;;;7.05;3.38;;;21.90;99.90;;;21.77;65.13;102836.91;5528994;26;20069;-76
2024/04/12 10:56:56;;;;;;;8.38;3.70;;;21.90;99.90;;;22.46;64.56;102937.97;5529433;26;20025;-76
2024/04/12 10:59:34;;;;;;;9.25;4.10;;;22.10;99.90;;;21.88;63.66;102838.50;5527799;26;20038;-81
2024/04/12 11:02:06;;;;;;;11.10;4.18;;;22.10;99.90;;;22.33;63.56;102937.34;5527646;26;19989;-73
2024/04/12 11:04:34;;;;;;;6.90;3.80;;;22.00;99.90;;;22.34;63.70;102933.72;5529076;26;20034;-81
2024/04/12 11:07:07;;;;;;;7.90;3.70;;;22.00;99.90;;;21.87;63.59;102831.34;5528953;25;20065;-81
2024/04/12 11:09:43;;;;;;;8.50;3.63;;;22.00;99.90;;;21.56;63.82;102822.03;5528992;26;19994;-79
2024/04/12 11:12:16;;;;;;;10.52;4.00;;;21.80;99.90;;;22.00;64.80;102919.13;5528971;25;20004;-75
2024/04/12 11:15:00;;;;;;;9.20;3.90;;;21.70;99.90;;;21.95;64.39;102922.84;5528767;26;20459;-79
2024/04/12 11:31:31;;;;;;;4.53;3.47;;;21.20;99.90;;;21.56;65.52;102908.25;5528795;26;19993;-76
2024/04/12 11:34:06;;;;;;;6.43;3.53;;;21.20;99.90;;;21.47;65.92;102894.91;5528451;26;20318;-75
2024/04/12 11:36:42;;;;;;;;;;;21.10;99.90;;;21.51;67.09;102899.31;5529303;25;19993;-74
2024/04/12 11:39:25;;;;;;;8.60;3.60;;;21.20;99.90;;;21.39;66.06;102905.81;5528232;26;19924;-77